sensor_id;sensor_type;location;lat;lon;timestamp;P1;durP1;ratioP1;P2;durP2;ratioP2
17614;SDS011;8926;49.720;6.576;2023-08-01T00:01:42;4.10;;;3.73;;
17614;SDS011;8926;49.720;6.576;2023-08-01T00:04:08;3.70;;;3.40;;
17614;SDS011;8926;49.720;6.576;2023-08-01T00:06:33;3.70;;;3.40;;
17614;SDS011;8926;49.720;6.576;2023-08-01T00:08:58;4.17;;;3.77;;
17614;SDS011;8926;49.720;6.576;2023-08-01T00:11:23;3.50;;;3.20;;
17614;SDS011;8926;49.720;6.576;2023-08-01T00:13:49;3.60;;;3.20;;
17614;SDS011;8926;49.720;6.576;2023-08-01T00:16:14;4.03;;;3.63;;
17614;SDS011;8926;49.720;6.576;2023-08-01T00:18:39;3.33;;;3.03;;
17614;SDS011;8926;49.720;6.576;2023-08-01T00:21:05;3.63;;;3.33;;
17614;SDS011;8926;49.720;6.576;2023-08-01T00:23:33;3.10;;;2.80;;
17614;SDS011;8926;49.720;6.576;2023-08-01T00:25:59;3.23;;;2.93;;
17614;SDS011;8926;49.720;6.576;2023-08-01T00:28:24;3.57;;;2.93;;
17614;SDS011;8926;49.720;6.576;2023-08-01T00:30:49;3.87;;;3.47;;
17614;SDS011;8926;49.720;6.576;2023-08-01T00:33:15;5.43;;;3.50;;
17614;SDS011;8926;49.720;6.576;2023-08-01T00:35:40;3.10;;;2.90;;
17614;SDS011;8926;49.720;6.576;2023-08-01T00:38:06;3.30;;;2.80;;
17614;SDS011;8926;49.720;6.576;2023-08-01T00:40:31;2.43;;;2.30;;
17614;SDS011;8926;49.720;6.576;2023-08-01T00:42:58;2.70;;;2.50;;
17614;SDS011;8926;49.720;6.576;2023-08-01T00:45:23;2.20;;;2.10;;
17614;SDS011;8926;49.720;6.576;2023-08-01T00:47:50;2.17;;;2.07;;
17614;SDS011;8926;49.720;6.576;2023-08-01T00:50:16;2.13;;;1.93;;
17614;SDS011;8926;49.720;6.576;2023-08-01T00:52:45;1.90;;;1.80;;
17614;SDS011;8926;49.720;6.576;2023-08-01T00:55:10;2.10;;;1.60;;
17614;SDS011;8926;49.720;6.576;2023-08-01T00:57:35;2.90;;;1.80;;
17614;SDS011;8926;49.720;6.576;2023-08-01T01:00:01;1.90;;;1.80;;
17614;SDS011;8926;49.720;6.576;2023-08-01T01:02:26;1.60;;;1.50;;
17614;SDS011;8926;49.720;6.576;2023-08-01T01:04:51;1.57;;;1.40;;
17614;SDS011;8926;49.720;6.576;2023-08-01T01:07:17;1.70;;;1.60;;
17614;SDS011;8926;49.720;6.576;2023-08-01T01:09:44;1.73;;;1.63;;
17614;SDS011;8926;49.720;6.576;2023-08-01T01:12:09;1.60;;;1.50;;
17614;SDS011;8926;49.720;6.576;2023-08-01T01:14:34;1.60;;;1.50;;
17614;SDS011;8926;49.720;6.576;2023-08-01T01:16:59;2.07;;;1.87;;
17614;SDS011;8926;49.720;6.576;2023-08-01T01:19:25;1.93;;;1.73;;
17614;SDS011;8926;49.720;6.576;2023-08-01T01:21:50;2.43;;;1.63;;
17614;SDS011;8926;49.720;6.576;2023-08-01T01:24:16;1.53;;;1.43;;
17614;SDS011;8926;49.720;6.576;2023-08-01T01:26:44;1.80;;;1.70;;
17614;SDS011;8926;49.720;6.576;2023-08-01T01:29:11;2.20;;;1.43;;
17614;SDS011;8926;49.720;6.576;2023-08-01T01:31:37;1.40;;;1.30;;
17614;SDS011;8926;49.720;6.576;2023-08-01T01:34:03;1.60;;;1.50;;
17614;SDS011;8926;49.720;6.576;2023-08-01T01:36:29;1.57;;;1.47;;
17614;SDS011;8926;49.720;6.576;2023-08-01T01:38:54;1.60;;;1.50;;
17614;SDS011;8926;49.720;6.576;2023-08-01T01:41:20;1.50;;;1.33;;
17614;SDS011;8926;49.720;6.576;2023-08-01T01:43:45;1.30;;;1.23;;
17614;SDS011;8926;49.720;6.576;2023-08-01T01:46:10;1.53;;;1.43;;
17614;SDS011;8926;49.720;6.576;2023-08-01T01:48:36;2.20;;;1.60;;
17614;SDS011;8926;49.720;6.576;2023-08-01T01:51:01;1.90;;;1.73;;
17614;SDS011;8926;49.720;6.576;2023-08-01T01:53:26;1.83;;;1.73;;
17614;SDS011;8926;49.720;6.576;2023-08-01T01:55:52;3.77;;;2.13;;
17614;SDS011;8926;49.720;6.576;2023-08-01T01:58:17;1.67;;;1.57;;
17614;SDS011;8926;49.720;6.576;2023-08-01T02:00:42;2.20;;;2.10;;
17614;SDS011;8926;49.720;6.576;2023-08-01T02:03:07;2.27;;;2.03;;
17614;SDS011;8926;49.720;6.576;2023-08-01T02:05:35;2.20;;;2.00;;
17614;SDS011;8926;49.720;6.576;2023-08-01T02:08:04;2.40;;;2.20;;
17614;SDS011;8926;49.720;6.576;2023-08-01T02:10:30;2.50;;;1.90;;
17614;SDS011;8926;49.720;6.576;2023-08-01T02:12:55;2.20;;;2.10;;
17614;SDS011;8926;49.720;6.576;2023-08-01T02:15:20;2.43;;;2.20;;
17614;SDS011;8926;49.720;6.576;2023-08-01T02:17:46;2.90;;;2.60;;
17614;SDS011;8926;49.720;6.576;2023-08-01T02:20:11;2.00;;;1.90;;
17614;SDS011;8926;49.720;6.576;2023-08-01T02:22:36;2.60;;;2.40;;
17614;SDS011;8926;49.720;6.576;2023-08-01T02:25:02;2.13;;;1.70;;
17614;SDS011;8926;49.720;6.576;2023-08-01T02:27:27;2.63;;;2.43;;
17614;SDS011;8926;49.720;6.576;2023-08-01T02:29:52;2.23;;;2.13;;
17614;SDS011;8926;49.720;6.576;2023-08-01T02:32:17;1.80;;;1.70;;
17614;SDS011;8926;49.720;6.576;2023-08-01T02:34:43;2.07;;;1.73;;
17614;SDS011;8926;49.720;6.576;2023-08-01T02:37:08;1.80;;;1.70;;
17614;SDS011;8926;49.720;6.576;2023-08-01T02:39:34;1.37;;;1.30;;
17614;SDS011;8926;49.720;6.576;2023-08-01T02:42:00;1.50;;;1.27;;
17614;SDS011;8926;49.720;6.576;2023-08-01T02:44:25;1.83;;;1.50;;
17614;SDS011;8926;49.720;6.576;2023-08-01T02:46:51;1.50;;;1.40;;
17614;SDS011;8926;49.720;6.576;2023-08-01T02:49:16;2.00;;;1.40;;
17614;SDS011;8926;49.720;6.576;2023-08-01T02:51:41;1.53;;;1.30;;
17614;SDS011;8926;49.720;6.576;2023-08-01T02:54:07;2.47;;;1.50;;
17614;SDS011;8926;49.720;6.576;2023-08-01T02:56:32;1.33;;;1.23;;
17614;SDS011;8926;49.720;6.576;2023-08-01T02:58:57;1.50;;;1.40;;
17614;SDS011;8926;49.720;6.576;2023-08-01T03:01:22;1.10;;;1.10;;
17614;SDS011;8926;49.720;6.576;2023-08-01T03:03:48;1.07;;;1.07;;
17614;SDS011;8926;49.720;6.576;2023-08-01T03:06:13;1.50;;;1.40;;
17614;SDS011;8926;49.720;6.576;2023-08-01T03:08:39;2.03;;;1.50;;
17614;SDS011;8926;49.720;6.576;2023-08-01T03:11:05;2.27;;;1.70;;
17614;SDS011;8926;49.720;6.576;2023-08-01T03:13:30;1.57;;;1.47;;
17614;SDS011;8926;49.720;6.576;2023-08-01T03:15:55;1.40;;;1.30;;
17614;SDS011;8926;49.720;6.576;2023-08-01T03:18:21;1.07;;;1.07;;
17614;SDS011;8926;49.720;6.576;2023-08-01T03:20:46;1.87;;;1.40;;
17614;SDS011;8926;49.720;6.576;2023-08-01T03:23:11;1.23;;;1.10;;
17614;SDS011;8926;49.720;6.576;2023-08-01T03:25:37;1.17;;;1.13;;
17614;SDS011;8926;49.720;6.576;2023-08-01T03:28:03;1.10;;;1.00;;
17614;SDS011;8926;49.720;6.576;2023-08-01T03:30:29;1.53;;;1.00;;
17614;SDS011;8926;49.720;6.576;2023-08-01T03:32:56;0.60;;;0.60;;
17614;SDS011;8926;49.720;6.576;2023-08-01T03:35:22;1.23;;;1.13;;
17614;SDS011;8926;49.720;6.576;2023-08-01T03:37:48;0.63;;;0.63;;
17614;SDS011;8926;49.720;6.576;2023-08-01T03:40:14;0.93;;;0.90;;
17614;SDS011;8926;49.720;6.576;2023-08-01T03:42:39;0.90;;;0.90;;
17614;SDS011;8926;49.720;6.576;2023-08-01T03:45:05;1.00;;;1.00;;
17614;SDS011;8926;49.720;6.576;2023-08-01T03:47:31;0.80;;;0.77;;
17614;SDS011;8926;49.720;6.576;2023-08-01T03:49:57;0.80;;;0.80;;
17614;SDS011;8926;49.720;6.576;2023-08-01T03:52:22;1.10;;;1.00;;
17614;SDS011;8926;49.720;6.576;2023-08-01T03:54:48;0.80;;;0.80;;
17614;SDS011;8926;49.720;6.576;2023-08-01T03:57:13;0.70;;;0.70;;
17614;SDS011;8926;49.720;6.576;2023-08-01T03:59:39;0.90;;;0.90;;
17614;SDS011;8926;49.720;6.576;2023-08-01T04:02:04;0.60;;;0.60;;
17614;SDS011;8926;49.720;6.576;2023-08-01T04:04:30;0.50;;;0.50;;
17614;SDS011;8926;49.720;6.576;2023-08-01T04:06:56;0.50;;;0.50;;
17614;SDS011;8926;49.720;6.576;2023-08-01T04:09:21;0.77;;;0.60;;
17614;SDS011;8926;49.720;6.576;2023-08-01T04:11:47;0.50;;;0.40;;
17614;SDS011;8926;49.720;6.576;2023-08-01T04:14:12;0.40;;;0.40;;
17614;SDS011;8926;49.720;6.576;2023-08-01T04:16:37;0.33;;;0.33;;
17614;SDS011;8926;49.720;6.576;2023-08-01T04:19:03;0.60;;;0.60;;
17614;SDS011;8926;49.720;6.576;2023-08-01T04:21:28;0.63;;;0.63;;
17614;SDS011;8926;49.720;6.576;2023-08-01T04:23:53;0.67;;;0.67;;
17614;SDS011;8926;49.720;6.576;2023-08-01T04:26:19;1.50;;;0.97;;
17614;SDS011;8926;49.720;6.576;2023-08-01T04:28:45;1.23;;;0.60;;
17614;SDS011;8926;49.720;6.576;2023-08-01T04:31:11;1.10;;;0.47;;
17614;SDS011;8926;49.720;6.576;2023-08-01T04:33:37;0.57;;;0.47;;
17614;SDS011;8926;49.720;6.576;2023-08-01T04:36:02;0.40;;;0.40;;
17614;SDS011;8926;49.720;6.576;2023-08-01T04:38:28;0.50;;;0.50;;
17614;SDS011;8926;49.720;6.576;2023-08-01T04:40:53;0.50;;;0.50;;
17614;SDS011;8926;49.720;6.576;2023-08-01T04:43:18;0.30;;;0.30;;
17614;SDS011;8926;49.720;6.576;2023-08-01T04:45:43;0.10;;;0.10;;
17614;SDS011;8926;49.720;6.576;2023-08-01T04:48:09;0.30;;;0.30;;
17614;SDS011;8926;49.720;6.576;2023-08-01T04:50:34;0.20;;;0.20;;
17614;SDS011;8926;49.720;6.576;2023-08-01T04:52:59;0.40;;;0.40;;
17614;SDS011;8926;49.720;6.576;2023-08-01T04:55:25;0.30;;;0.30;;
17614;SDS011;8926;49.720;6.576;2023-08-01T04:57:50;0.87;;;0.30;;
17614;SDS011;8926;49.720;6.576;2023-08-01T05:00:16;0.30;;;0.30;;
17614;SDS011;8926;49.720;6.576;2023-08-01T05:02:42;0.30;;;0.30;;
17614;SDS011;8926;49.720;6.576;2023-08-01T05:05:07;0.40;;;0.30;;
17614;SDS011;8926;49.720;6.576;2023-08-01T05:07:32;0.23;;;0.23;;
17614;SDS011;8926;49.720;6.576;2023-08-01T05:09:58;0.20;;;0.20;;
17614;SDS011;8926;49.720;6.576;2023-08-01T05:12:23;0.20;;;0.20;;
17614;SDS011;8926;49.720;6.576;2023-08-01T05:14:48;0.73;;;0.10;;
17614;SDS011;8926;49.720;6.576;2023-08-01T05:17:14;0.10;;;0.10;;
17614;SDS011;8926;49.720;6.576;2023-08-01T05:19:39;0.27;;;0.20;;
17614;SDS011;8926;49.720;6.576;2023-08-01T05:22:04;0.50;;;0.20;;
17614;SDS011;8926;49.720;6.576;2023-08-01T05:24:30;0.27;;;0.27;;
17614;SDS011;8926;49.720;6.576;2023-08-01T05:26:55;0.10;;;0.10;;
17614;SDS011;8926;49.720;6.576;2023-08-01T05:29:20;0.53;;;0.30;;
17614;SDS011;8926;49.720;6.576;2023-08-01T05:31:46;0.30;;;0.30;;
17614;SDS011;8926;49.720;6.576;2023-08-01T05:34:11;0.23;;;0.23;;
17614;SDS011;8926;49.720;6.576;2023-08-01T05:36:36;0.20;;;0.20;;
17614;SDS011;8926;49.720;6.576;2023-08-01T05:39:02;0.30;;;0.20;;
17614;SDS011;8926;49.720;6.576;2023-08-01T05:41:27;0.37;;;0.10;;
17614;SDS011;8926;49.720;6.576;2023-08-01T05:43:52;0.13;;;0.10;;
17614;SDS011;8926;49.720;6.576;2023-08-01T05:46:18;0.13;;;0.13;;
17614;SDS011;8926;49.720;6.576;2023-08-01T05:48:43;0.47;;;0.10;;
17614;SDS011;8926;49.720;6.576;2023-08-01T05:51:08;0.10;;;0.10;;
17614;SDS011;8926;49.720;6.576;2023-08-01T05:53:34;0.10;;;0.10;;
17614;SDS011;8926;49.720;6.576;2023-08-01T05:55:59;0.10;;;0.10;;
17614;SDS011;8926;49.720;6.576;2023-08-01T05:58:24;0.10;;;0.10;;
17614;SDS011;8926;49.720;6.576;2023-08-01T06:00:49;0.10;;;0.10;;
17614;SDS011;8926;49.720;6.576;2023-08-01T06:03:15;0.10;;;0.10;;
17614;SDS011;8926;49.720;6.576;2023-08-01T06:05:41;0.10;;;0.10;;
17614;SDS011;8926;49.720;6.576;2023-08-01T06:08:07;0.43;;;0.20;;
17614;SDS011;8926;49.720;6.576;2023-08-01T06:10:35;0.30;;;0.20;;
17614;SDS011;8926;49.720;6.576;2023-08-01T06:13:01;0.10;;;0.10;;
17614;SDS011;8926;49.720;6.576;2023-08-01T06:15:26;0.17;;;0.17;;
17614;SDS011;8926;49.720;6.576;2023-08-01T06:17:52;0.10;;;0.10;;
17614;SDS011;8926;49.720;6.576;2023-08-01T06:20:17;0.30;;;0.30;;
17614;SDS011;8926;49.720;6.576;2023-08-01T06:22:43;0.20;;;0.20;;
17614;SDS011;8926;49.720;6.576;2023-08-01T06:25:08;0.30;;;0.30;;
17614;SDS011;8926;49.720;6.576;2023-08-01T06:27:34;0.30;;;0.27;;
17614;SDS011;8926;49.720;6.576;2023-08-01T06:29:59;0.20;;;0.20;;
17614;SDS011;8926;49.720;6.576;2023-08-01T06:32:25;0.53;;;0.50;;
17614;SDS011;8926;49.720;6.576;2023-08-01T06:34:50;0.20;;;0.20;;
17614;SDS011;8926;49.720;6.576;2023-08-01T06:37:15;0.53;;;0.53;;
17614;SDS011;8926;49.720;6.576;2023-08-01T06:39:40;0.40;;;0.40;;
17614;SDS011;8926;49.720;6.576;2023-08-01T06:42:06;0.30;;;0.30;;
17614;SDS011;8926;49.720;6.576;2023-08-01T06:44:31;0.27;;;0.27;;
17614;SDS011;8926;49.720;6.576;2023-08-01T06:46:56;0.73;;;0.60;;
17614;SDS011;8926;49.720;6.576;2023-08-01T06:49:22;0.70;;;0.70;;
17614;SDS011;8926;49.720;6.576;2023-08-01T06:51:47;0.60;;;0.60;;
17614;SDS011;8926;49.720;6.576;2023-08-01T06:54:12;0.97;;;0.73;;
17614;SDS011;8926;49.720;6.576;2023-08-01T06:56:38;0.60;;;0.60;;
17614;SDS011;8926;49.720;6.576;2023-08-01T06:59:03;1.40;;;0.90;;
17614;SDS011;8926;49.720;6.576;2023-08-01T07:01:28;0.67;;;0.67;;
17614;SDS011;8926;49.720;6.576;2023-08-01T07:03:53;0.60;;;0.60;;
17614;SDS011;8926;49.720;6.576;2023-08-01T07:06:19;0.70;;;0.70;;
17614;SDS011;8926;49.720;6.576;2023-08-01T07:08:45;0.80;;;0.80;;
17614;SDS011;8926;49.720;6.576;2023-08-01T07:11:10;0.80;;;0.80;;
17614;SDS011;8926;49.720;6.576;2023-08-01T07:13:35;0.90;;;0.90;;
17614;SDS011;8926;49.720;6.576;2023-08-01T07:16:00;1.07;;;0.97;;
17614;SDS011;8926;49.720;6.576;2023-08-01T07:18:26;1.03;;;1.00;;
17614;SDS011;8926;49.720;6.576;2023-08-01T07:21:03;1.40;;;1.27;;
17614;SDS011;8926;49.720;6.576;2023-08-01T07:23:30;1.30;;;1.10;;
17614;SDS011;8926;49.720;6.576;2023-08-01T07:25:56;1.17;;;1.07;;
17614;SDS011;8926;49.720;6.576;2023-08-01T07:28:21;1.27;;;1.10;;
17614;SDS011;8926;49.720;6.576;2023-08-01T07:30:46;1.50;;;1.40;;
17614;SDS011;8926;49.720;6.576;2023-08-01T07:33:12;1.17;;;1.07;;
17614;SDS011;8926;49.720;6.576;2023-08-01T07:35:37;1.80;;;1.47;;
17614;SDS011;8926;49.720;6.576;2023-08-01T07:38:02;1.67;;;1.40;;
17614;SDS011;8926;49.720;6.576;2023-08-01T07:40:27;1.87;;;1.77;;
17614;SDS011;8926;49.720;6.576;2023-08-01T07:42:53;1.90;;;1.80;;
17614;SDS011;8926;49.720;6.576;2023-08-01T07:45:18;1.53;;;1.30;;
17614;SDS011;8926;49.720;6.576;2023-08-01T07:47:44;2.37;;;1.70;;
17614;SDS011;8926;49.720;6.576;2023-08-01T07:50:09;3.07;;;1.80;;
17614;SDS011;8926;49.720;6.576;2023-08-01T07:52:35;1.40;;;1.30;;
17614;SDS011;8926;49.720;6.576;2023-08-01T07:55:00;1.30;;;1.20;;
17614;SDS011;8926;49.720;6.576;2023-08-01T07:57:26;2.03;;;1.30;;
17614;SDS011;8926;49.720;6.576;2023-08-01T07:59:51;1.40;;;1.30;;
17614;SDS011;8926;49.720;6.576;2023-08-01T08:02:16;1.40;;;1.30;;
17614;SDS011;8926;49.720;6.576;2023-08-01T08:04:42;1.23;;;1.13;;
17614;SDS011;8926;49.720;6.576;2023-08-01T08:07:07;0.87;;;0.87;;
17614;SDS011;8926;49.720;6.576;2023-08-01T08:09:32;1.33;;;1.10;;
17614;SDS011;8926;49.720;6.576;2023-08-01T08:11:57;1.07;;;0.90;;
17614;SDS011;8926;49.720;6.576;2023-08-01T08:14:23;1.00;;;1.00;;
17614;SDS011;8926;49.720;6.576;2023-08-01T08:16:48;1.20;;;1.10;;
17614;SDS011;8926;49.720;6.576;2023-08-01T08:19:14;1.40;;;1.30;;
17614;SDS011;8926;49.720;6.576;2023-08-01T08:21:40;1.53;;;1.27;;
17614;SDS011;8926;49.720;6.576;2023-08-01T08:24:05;1.57;;;1.40;;
17614;SDS011;8926;49.720;6.576;2023-08-01T08:26:31;1.00;;;1.00;;
17614;SDS011;8926;49.720;6.576;2023-08-01T08:28:58;1.50;;;1.40;;
17614;SDS011;8926;49.720;6.576;2023-08-01T08:31:24;1.40;;;1.30;;
17614;SDS011;8926;49.720;6.576;2023-08-01T08:33:49;1.93;;;1.60;;
17614;SDS011;8926;49.720;6.576;2023-08-01T08:36:15;1.90;;;1.50;;
17614;SDS011;8926;49.720;6.576;2023-08-01T08:38:40;1.60;;;1.50;;
17614;SDS011;8926;49.720;6.576;2023-08-01T08:43:35;1.80;;;1.63;;
17614;SDS011;8926;49.720;6.576;2023-08-01T08:46:02;1.50;;;1.40;;
17614;SDS011;8926;49.720;6.576;2023-08-01T08:48:29;1.70;;;1.43;;
17614;SDS011;8926;49.720;6.576;2023-08-01T08:50:58;1.60;;;1.50;;
17614;SDS011;8926;49.720;6.576;2023-08-01T08:53:25;2.40;;;1.80;;
17614;SDS011;8926;49.720;6.576;2023-08-01T08:55:50;1.30;;;1.27;;
17614;SDS011;8926;49.720;6.576;2023-08-01T08:58:16;1.83;;;1.60;;
17614;SDS011;8926;49.720;6.576;2023-08-01T09:00:42;1.77;;;1.50;;
17614;SDS011;8926;49.720;6.576;2023-08-01T09:03:08;1.73;;;1.53;;
17614;SDS011;8926;49.720;6.576;2023-08-01T09:05:34;1.50;;;1.40;;
17614;SDS011;8926;49.720;6.576;2023-08-01T09:08:13;2.20;;;1.67;;
17614;SDS011;8926;49.720;6.576;2023-08-01T09:10:42;2.37;;;2.10;;
17614;SDS011;8926;49.720;6.576;2023-08-01T09:13:08;2.00;;;1.90;;
17614;SDS011;8926;49.720;6.576;2023-08-01T09:15:34;3.30;;;2.00;;
17614;SDS011;8926;49.720;6.576;2023-08-01T09:18:05;2.10;;;1.70;;
17614;SDS011;8926;49.720;6.576;2023-08-01T09:20:42;3.47;;;1.87;;
17614;SDS011;8926;49.720;6.576;2023-08-01T09:23:12;1.80;;;1.63;;
17614;SDS011;8926;49.720;6.576;2023-08-01T09:25:38;2.10;;;2.00;;
17614;SDS011;8926;49.720;6.576;2023-08-01T09:28:14;2.30;;;2.10;;
17614;SDS011;8926;49.720;6.576;2023-08-01T09:30:47;2.73;;;1.90;;
17614;SDS011;8926;49.720;6.576;2023-08-01T09:33:14;1.80;;;1.70;;
17614;SDS011;8926;49.720;6.576;2023-08-01T09:35:40;2.70;;;2.03;;
17614;SDS011;8926;49.720;6.576;2023-08-01T09:38:05;2.07;;;1.83;;
17614;SDS011;8926;49.720;6.576;2023-08-01T09:40:37;2.40;;;2.03;;
17614;SDS011;8926;49.720;6.576;2023-08-01T09:43:03;2.93;;;1.97;;
17614;SDS011;8926;49.720;6.576;2023-08-01T09:45:29;1.60;;;1.50;;
17614;SDS011;8926;49.720;6.576;2023-08-01T09:47:54;1.90;;;1.60;;
17614;SDS011;8926;49.720;6.576;2023-08-01T09:50:20;2.50;;;1.80;;
17614;SDS011;8926;49.720;6.576;2023-08-01T09:52:47;1.73;;;1.60;;
17614;SDS011;8926;49.720;6.576;2023-08-01T09:55:26;1.50;;;1.40;;
17614;SDS011;8926;49.720;6.576;2023-08-01T09:57:58;1.70;;;1.60;;
17614;SDS011;8926;49.720;6.576;2023-08-01T10:00:30;1.80;;;1.70;;
17614;SDS011;8926;49.720;6.576;2023-08-01T10:02:59;2.17;;;1.60;;
17614;SDS011;8926;49.720;6.576;2023-08-01T10:05:25;1.50;;;1.23;;
17614;SDS011;8926;49.720;6.576;2023-08-01T10:07:54;2.87;;;2.10;;
17614;SDS011;8926;49.720;6.576;2023-08-01T10:10:23;1.93;;;1.73;;
17614;SDS011;8926;49.720;6.576;2023-08-01T10:12:50;2.10;;;1.90;;
17614;SDS011;8926;49.720;6.576;2023-08-01T10:15:16;1.80;;;1.70;;
17614;SDS011;8926;49.720;6.576;2023-08-01T10:17:42;2.80;;;1.90;;
17614;SDS011;8926;49.720;6.576;2023-08-01T10:20:07;1.83;;;1.73;;
17614;SDS011;8926;49.720;6.576;2023-08-01T10:22:34;2.13;;;1.63;;
17614;SDS011;8926;49.720;6.576;2023-08-01T10:25:00;2.97;;;2.00;;
17614;SDS011;8926;49.720;6.576;2023-08-01T10:27:25;2.57;;;1.80;;
17614;SDS011;8926;49.720;6.576;2023-08-01T10:29:57;4.10;;;2.00;;
17614;SDS011;8926;49.720;6.576;2023-08-01T10:32:33;2.27;;;2.07;;
17614;SDS011;8926;49.720;6.576;2023-08-01T10:35:00;2.20;;;1.87;;
17614;SDS011;8926;49.720;6.576;2023-08-01T10:37:26;3.57;;;2.10;;
17614;SDS011;8926;49.720;6.576;2023-08-01T10:39:58;2.37;;;1.97;;
17614;SDS011;8926;49.720;6.576;2023-08-01T10:42:24;2.70;;;2.00;;
17614;SDS011;8926;49.720;6.576;2023-08-01T10:44:50;2.63;;;2.00;;
17614;SDS011;8926;49.720;6.576;2023-08-01T10:47:24;2.03;;;1.73;;
17614;SDS011;8926;49.720;6.576;2023-08-01T10:49:51;1.67;;;1.57;;
17614;SDS011;8926;49.720;6.576;2023-08-01T10:52:23;3.30;;;2.00;;
17614;SDS011;8926;49.720;6.576;2023-08-01T10:55:00;1.53;;;1.43;;
17614;SDS011;8926;49.720;6.576;2023-08-01T10:57:31;1.87;;;1.70;;
17614;SDS011;8926;49.720;6.576;2023-08-01T10:59:59;2.10;;;1.90;;
17614;SDS011;8926;49.720;6.576;2023-08-01T11:02:25;2.00;;;1.67;;
17614;SDS011;8926;49.720;6.576;2023-08-01T11:05:01;1.87;;;1.70;;
17614;SDS011;8926;49.720;6.576;2023-08-01T11:07:28;3.03;;;2.10;;
17614;SDS011;8926;49.720;6.576;2023-08-01T11:10:04;3.00;;;1.80;;
17614;SDS011;8926;49.720;6.576;2023-08-01T11:12:34;2.27;;;1.83;;
17614;SDS011;8926;49.720;6.576;2023-08-01T11:15:01;1.90;;;1.50;;
17614;SDS011;8926;49.720;6.576;2023-08-01T11:17:28;2.27;;;1.80;;
17614;SDS011;8926;49.720;6.576;2023-08-01T11:20:00;1.30;;;1.20;;
17614;SDS011;8926;49.720;6.576;2023-08-01T11:22:26;2.37;;;1.70;;
17614;SDS011;8926;49.720;6.576;2023-08-01T11:24:51;3.80;;;2.00;;
17614;SDS011;8926;49.720;6.576;2023-08-01T11:27:16;2.70;;;1.83;;
17614;SDS011;8926;49.720;6.576;2023-08-01T11:29:41;1.93;;;1.80;;
17614;SDS011;8926;49.720;6.576;2023-08-01T11:32:07;3.03;;;2.30;;
17614;SDS011;8926;49.720;6.576;2023-08-01T11:34:41;2.80;;;1.77;;
17614;SDS011;8926;49.720;6.576;2023-08-01T11:37:11;1.50;;;1.40;;
17614;SDS011;8926;49.720;6.576;2023-08-01T11:39:37;1.93;;;1.60;;
17614;SDS011;8926;49.720;6.576;2023-08-01T11:42:03;2.33;;;1.83;;
17614;SDS011;8926;49.720;6.576;2023-08-01T11:44:28;2.30;;;1.53;;
17614;SDS011;8926;49.720;6.576;2023-08-01T11:46:54;2.63;;;1.83;;
17614;SDS011;8926;49.720;6.576;2023-08-01T11:49:20;1.90;;;1.70;;
17614;SDS011;8926;49.720;6.576;2023-08-01T11:51:45;1.93;;;1.80;;
17614;SDS011;8926;49.720;6.576;2023-08-01T11:54:11;1.57;;;1.40;;
17614;SDS011;8926;49.720;6.576;2023-08-01T11:56:38;2.23;;;1.70;;
17614;SDS011;8926;49.720;6.576;2023-08-01T11:59:11;1.90;;;1.70;;
17614;SDS011;8926;49.720;6.576;2023-08-01T12:01:41;2.03;;;1.80;;
17614;SDS011;8926;49.720;6.576;2023-08-01T12:04:08;3.73;;;1.80;;
17614;SDS011;8926;49.720;6.576;2023-08-01T12:06:33;1.93;;;1.60;;
17614;SDS011;8926;49.720;6.576;2023-08-01T12:09:06;2.87;;;1.70;;
17614;SDS011;8926;49.720;6.576;2023-08-01T12:11:36;1.90;;;1.40;;
17614;SDS011;8926;49.720;6.576;2023-08-01T12:14:03;1.60;;;1.50;;
17614;SDS011;8926;49.720;6.576;2023-08-01T12:16:39;1.50;;;1.40;;
17614;SDS011;8926;49.720;6.576;2023-08-01T12:19:07;1.47;;;1.37;;
17614;SDS011;8926;49.720;6.576;2023-08-01T12:21:33;2.27;;;1.70;;
17614;SDS011;8926;49.720;6.576;2023-08-01T12:23:59;2.50;;;2.00;;
17614;SDS011;8926;49.720;6.576;2023-08-01T12:26:24;1.80;;;1.50;;
17614;SDS011;8926;49.720;6.576;2023-08-01T12:28:50;2.17;;;1.80;;
17614;SDS011;8926;49.720;6.576;2023-08-01T12:31:19;2.57;;;1.70;;
17614;SDS011;8926;49.720;6.576;2023-08-01T12:33:45;2.60;;;1.73;;
17614;SDS011;8926;49.720;6.576;2023-08-01T12:36:11;2.07;;;1.37;;
17614;SDS011;8926;49.720;6.576;2023-08-01T12:38:37;1.73;;;1.33;;
17614;SDS011;8926;49.720;6.576;2023-08-01T12:41:03;1.23;;;1.13;;
17614;SDS011;8926;49.720;6.576;2023-08-01T12:43:28;2.10;;;1.77;;
17614;SDS011;8926;49.720;6.576;2023-08-01T12:45:53;2.50;;;1.93;;
17614;SDS011;8926;49.720;6.576;2023-08-01T12:48:20;2.47;;;1.50;;
17614;SDS011;8926;49.720;6.576;2023-08-01T12:50:46;1.93;;;1.63;;
17614;SDS011;8926;49.720;6.576;2023-08-01T12:53:11;3.07;;;1.80;;
17614;SDS011;8926;49.720;6.576;2023-08-01T12:55:37;2.13;;;1.40;;
17614;SDS011;8926;49.720;6.576;2023-08-01T12:58:02;1.77;;;1.40;;
17614;SDS011;8926;49.720;6.576;2023-08-01T13:00:29;1.90;;;1.70;;
17614;SDS011;8926;49.720;6.576;2023-08-01T13:02:55;1.60;;;1.50;;
17614;SDS011;8926;49.720;6.576;2023-08-01T13:05:20;2.13;;;1.40;;
17614;SDS011;8926;49.720;6.576;2023-08-01T13:07:45;2.60;;;1.70;;
17614;SDS011;8926;49.720;6.576;2023-08-01T13:10:11;3.27;;;1.57;;
17614;SDS011;8926;49.720;6.576;2023-08-01T13:12:36;1.43;;;1.30;;
17614;SDS011;8926;49.720;6.576;2023-08-01T13:15:02;1.57;;;1.47;;
17614;SDS011;8926;49.720;6.576;2023-08-01T13:17:28;1.27;;;1.10;;
17614;SDS011;8926;49.720;6.576;2023-08-01T13:19:53;2.27;;;1.67;;
17614;SDS011;8926;49.720;6.576;2023-08-01T13:22:18;1.53;;;1.43;;
17614;SDS011;8926;49.720;6.576;2023-08-01T13:24:44;2.57;;;1.40;;
17614;SDS011;8926;49.720;6.576;2023-08-01T13:27:11;1.60;;;1.17;;
17614;SDS011;8926;49.720;6.576;2023-08-01T13:29:36;1.87;;;1.40;;
17614;SDS011;8926;49.720;6.576;2023-08-01T13:32:02;3.33;;;1.67;;
17614;SDS011;8926;49.720;6.576;2023-08-01T13:34:27;1.30;;;1.20;;
17614;SDS011;8926;49.720;6.576;2023-08-01T13:36:53;2.30;;;1.43;;
17614;SDS011;8926;49.720;6.576;2023-08-01T13:39:18;2.10;;;1.40;;
17614;SDS011;8926;49.720;6.576;2023-08-01T13:41:44;2.27;;;1.50;;
17614;SDS011;8926;49.720;6.576;2023-08-01T13:44:09;1.43;;;1.33;;
17614;SDS011;8926;49.720;6.576;2023-08-01T13:46:34;1.70;;;1.30;;
17614;SDS011;8926;49.720;6.576;2023-08-01T13:49:00;1.77;;;1.47;;
17614;SDS011;8926;49.720;6.576;2023-08-01T13:51:25;1.80;;;1.70;;
17614;SDS011;8926;49.720;6.576;2023-08-01T13:53:50;1.53;;;1.17;;
17614;SDS011;8926;49.720;6.576;2023-08-01T13:56:16;1.87;;;1.40;;
17614;SDS011;8926;49.720;6.576;2023-08-01T13:58:41;4.63;;;1.50;;
17614;SDS011;8926;49.720;6.576;2023-08-01T14:01:07;1.37;;;1.27;;
17614;SDS011;8926;49.720;6.576;2023-08-01T14:03:34;4.43;;;1.93;;
17614;SDS011;8926;49.720;6.576;2023-08-01T14:06:03;2.23;;;1.70;;
17614;SDS011;8926;49.720;6.576;2023-08-01T14:08:29;2.37;;;1.70;;
17614;SDS011;8926;49.720;6.576;2023-08-01T14:10:54;1.47;;;1.37;;
17614;SDS011;8926;49.720;6.576;2023-08-01T14:13:20;3.97;;;1.70;;
17614;SDS011;8926;49.720;6.576;2023-08-01T14:15:45;1.67;;;1.40;;
17614;SDS011;8926;49.720;6.576;2023-08-01T14:18:10;1.70;;;1.40;;
17614;SDS011;8926;49.720;6.576;2023-08-01T14:20:35;1.90;;;1.60;;
17614;SDS011;8926;49.720;6.576;2023-08-01T14:23:01;3.17;;;1.40;;
17614;SDS011;8926;49.720;6.576;2023-08-01T14:25:26;3.00;;;1.37;;
17614;SDS011;8926;49.720;6.576;2023-08-01T14:27:51;2.67;;;1.40;;
17614;SDS011;8926;49.720;6.576;2023-08-01T14:30:17;1.87;;;1.50;;
17614;SDS011;8926;49.720;6.576;2023-08-01T14:32:42;2.07;;;1.47;;
17614;SDS011;8926;49.720;6.576;2023-08-01T14:35:07;1.93;;;1.20;;
17614;SDS011;8926;49.720;6.576;2023-08-01T14:37:33;3.23;;;1.50;;
17614;SDS011;8926;49.720;6.576;2023-08-01T14:39:59;2.23;;;1.37;;
17614;SDS011;8926;49.720;6.576;2023-08-01T14:42:24;2.03;;;1.47;;
17614;SDS011;8926;49.720;6.576;2023-08-01T14:44:52;2.90;;;1.63;;
17614;SDS011;8926;49.720;6.576;2023-08-01T14:47:19;2.87;;;1.60;;
17614;SDS011;8926;49.720;6.576;2023-08-01T14:49:44;1.83;;;1.43;;
17614;SDS011;8926;49.720;6.576;2023-08-01T14:52:10;1.20;;;1.10;;
17614;SDS011;8926;49.720;6.576;2023-08-01T14:54:35;2.10;;;1.57;;
17614;SDS011;8926;49.720;6.576;2023-08-01T14:57:01;1.60;;;1.40;;